Flight Track Log - Related Links

Times and Time Zones

All times are in EDT time to prevent confusion due to time zone crossing. See the VNR104 flight status page for this flight to view local times or setup timezone preferences in your user account.

Time Position Orientation Groundspeed Altitude Reporting Facility
EDT Latitude Longitude Course Direction KTS MPH feet Rate Location/Type
Tue 12:34:08 AM 30.1831 -97.4908 65° Northeast 217 250 7,900  Level Houston Center
Tue 12:35:09 AM 30.2111 -97.4256 64° Northeast 223 257 9,500 1,289 Climbing Houston Center
Tue 12:36:00 AM 30.3539 -97.3468 95° East  Level FlightAware Approximate
Tue 12:36:09 AM 30.2417 -97.3483 65° Northeast 261 300 10,500  Level Houston Center
Tue 12:37:00 AM 30.3500 -97.2607 90° East  Level FlightAware Approximate
Tue 12:37:09 AM 30.2758 -97.2656 64° Northeast 282 325 11,600  Level Houston Center
Tue 12:38:00 AM 30.3500 -97.1745 90° East  Level FlightAware Approximate
Tue 12:38:10 AM 30.3106 -97.1789 65° Northeast 291 335 12,600  Level Houston Center
Tue 12:39:10 AM 30.3450 -97.0922 65° Northeast 295 339 13,700 1,050 Climbing Houston Center
Tue 12:40:10 AM 30.3300 -96.9992 101° East 291 335 14,700 1,050 Climbing Houston Center
Tue 12:41:10 AM 30.3131 -96.9058 102° East 295 339 15,800 1,050 Climbing Houston Center
Tue 12:42:10 AM 30.2956 -96.8094 102° East 300 345 16,800 638 Climbing Houston Center
Tue 12:42:44 AM 30.2847 -96.7553 103° East 304 350 16,800 98 Level Houston Center
Tue 12:43:11 AM 30.2769 -96.7106 101° East 312 359 16,900  Climbing Houston Center
Tue 12:43:26 AM 30.2725 -96.6817 100° East 320 368 16,800  Descending Houston Center
Tue 12:44:11 AM 30.2572 -96.6050 103° East 328 377 16,900  Climbing Houston Center
Tue 12:45:11 AM 30.2378 -96.4964 102° East 339 390 16,800 -950 Descending Houston Center
Tue 12:46:11 AM 30.2197 -96.3936 101° East 328 377 15,000 -1,785 Descending Houston Center
Tue 12:47:12 AM 30.2025 -96.2958 101° East 312 359 13,200 -1,850 Descending Houston Center
Tue 12:48:11 AM 30.1969 -96.2019 94° East 287 330 11,300 -1,850 Descending Houston Center
Tue 12:49:12 AM 30.1906 -96.1086 95° East 292 336 9,500 -1,785 Descending Houston Center
Tue 12:50:12 AM 30.1853 -96.0147 94° East 289 333 7,700 -1,550 Descending Houston Center
Tue 12:51:12 AM 30.1792 -95.9469 96° East 270 311 6,400 -1,438 Descending Houston Center
Tue 12:52:13 AM 30.1722 -95.8694 96° East 250 288 4,800 -1,190 Descending Houston Center
Tue 12:53:13 AM 30.1689 -95.7889 93° East 250 288 4,000 -800 Descending Houston Center
Tue 12:54:13 AM 30.1614 -95.7100 96° East 247 284 3,200 -500 Descending Houston Center
Tue 12:55:13 AM 30.1572 -95.6336 94° East 243 280 3,000 -600 Descending Houston Center
Tue 12:56:13 AM 30.1500 -95.5725 98° East 205 236 2,000 -1,041 Descending Houston Center
Tue 12:57:14 AM 30.1086 -95.5600 165° South 170 196 900 -843 Descending Houston Center
Tue 12:58:14 AM 30.0797 -95.5547 171° South 136 157 300 -600 Descending Houston Center
Tue 01:00:00 AM 30.0618 -95.5528 221° Southwest  Level Estimated

Login

Don't have an account? Register now (free) for customized features, flight alerts, and more!